Tiempo atmosférico en la estación meteorológica de Mogán, Puerto, Las Palmas (10 m.)



Fecha
DESCASC
Temp. máxima en grados centígrados (hora)
DESCASC
Temp. mínima en grados centígrados (hora)
DESCASC
Temp. media en grados centígrados
DESCASC
Racha de viento máxima en m/sg (hora)
DESCASC
Velocidad máxima media en intervalos de 10 minutos(hora)
DESCASC
Precipitaciones diarias en mm
DESCASC
Precipitaciones de 00:00 a 06:00 en mm
DESCASC
Precipitaciones de 06:00 a 12:00 en mm
DESCASC
Precipitaciones de 12:00 a 18:00 en mm
DESCASC
Precipitaciones de 18:00 a 24:00 en mm
DESCASC
24-05-2020 29.5 (10:50) 20.3 (03:40) 24.9 10.83 (07:50) 6.94 (17:10) -- -- 0 0 0
23-05-2020 28.4 (14:30) 20 (05:10) 24.2 8.89 (22:20) 4.17 (22:10) -- -- -- -- --
22-05-2020 26.4 (15:30) 17.3 (07:20) 21.8 6.67 (22:20) 4.17 (18:20) -- -- -- -- --
21-05-2020 24.7 (12:10) 18.2 (00:00) 21.5 5.83 (15:30) 4.17 (15:30) -- -- -- -- --
20-05-2020 25.9 (14:40) 17.7 (00:00) 21.8 5 (22:10) 3.61 (23:00) -- -- -- -- --
19-05-2020 24.4 (14:00) 17.4 (00:00) 20.9 6.39 (18:20) 5.28 (18:10) -- -- -- -- --
18-05-2020 24.4 (15:20) 17.7 (00:00) 21.1 9.17 (03:50) 3.89 (19:20) -- -- -- -- --
17-05-2020 24.8 (14:30) 18.5 (00:00) 21.6 8.33 (16:30) 6.11 (16:10) -- -- -- -- --
16-05-2020 24.3 (10:50) 18.5 (00:00) 21.4 13.06 (12:00) 6.11 (14:20) -- -- -- -- --
15-05-2020 25.5 (16:00) 18.8 (00:00) 22.1 25.83 (19:20) 6.11 (16:40) -- -- -- -- --
14-05-2020 24.9 (15:50) 18.7 (00:00) 21.8 15.83 (22:50) 7.78 (17:10) -- -- -- -- --
13-05-2020 27.5 (14:30) 20.1 (00:00) 23.8 16.11 (15:30) 10 (16:00) -- -- -- -- --
12-05-2020 26.7 (16:30) 19.8 (00:00) 23.3 14.44 (15:30) 8.61 (15:20) -- -- -- -- --
11-05-2020 24.6 (10:50) 18.7 (00:00) 21.7 7.22 (15:40) 4.17 (15:40) -- -- -- -- --
10-05-2020 24.6 (10:00) 18.5 (00:00) 21.6 6.94 (21:40) 4.44 (11:40) -- -- -- -- --
09-05-2020 24.4 (12:30) 17.8 (00:00) 21.1 4.72 (17:30) 3.33 (14:00) -- -- -- -- --
08-05-2020 24.3 (14:50) 17.4 (00:00) 20.8 6.39 (22:20) 3.89 (18:30) -- -- -- -- --
07-05-2020 23.9 (17:00) 17.6 (00:00) 20.8 11.39 (18:30) 7.22 (18:30) -- -- -- -- --
06-05-2020 24.3 (16:10) 17.2 (00:00) 20.8 6.67 (14:10) 5 (14:10) -- -- -- -- --
05-05-2020 24.3 (12:20) 18.4 (00:00) 21.3 6.39 (17:20) 4.17 (17:10) -- -- -- -- --
04-05-2020 25 (11:50) 17.7 (00:00) 21.4 7.5 (17:50) 5.56 (18:10) -- -- -- -- --
03-05-2020 24 (11:00) 17.8 (00:00) 20.9 8.89 (07:40) 5.56 (18:20) -- -- -- -- --
02-05-2020 23.5 (11:20) 18.7 (00:00) 21.1 7.5 (20:40) 5.83 (20:30) -- -- -- -- --
01-05-2020 24.4 (16:20) 18.1 (00:00) 21.3 8.61 (14:50) 5.56 (14:50) -- -- -- -- --
30-04-2020 25.3 (16:20) 16.5 (00:00) 20.9 7.22 (23:10) 4.44 (18:40) -- -- -- -- --
29-04-2020 23.6 (14:20) 17.2 (00:00) 20.4 7.5 (16:40) 5.83 (21:20) -- -- -- -- --

Gráficas

Temp. máximas Temp. mínimas Temp. medias Precipitaciones Rachas de viento máximas Velocidades máximas media en intervalos de 10 minutos

Datos horarios

Fecha y hora oficial Temperatura (ºC) Velocidad del viento (km/h) Dirección del viento Racha (km/h) Dirección de racha Precipitación (mm) Presión (hPa) Tendencia (hPa) Humedad (%)
2020-05-28 23:00:00 20.9 3 Sudoeste 20 Oeste 0 -- -- 75
2020-05-28 22:00:00 20.9 11 Oeste 17 Oeste 0 -- -- 76
2020-05-28 21:00:00 21 7 Oeste 13 Oeste 0 -- -- 73
2020-05-28 20:00:00 21.8 6 Sudoeste 14 Sudoeste 0 -- -- 69
2020-05-28 19:00:00 22.2 9 Sur 26 Sudeste 0 -- -- 68
2020-05-28 18:00:00 23 18 Sudeste 31 Sudeste 0 -- -- 66
2020-05-28 17:00:00 23.3 19 Sudeste 28 Sudeste 0 -- -- 63
2020-05-28 16:00:00 23.3 11 Sudeste 17 Sudeste 0 -- -- 65
2020-05-28 15:00:00 24 9 Oeste 23 Oeste 0 -- -- 65
2020-05-28 14:00:00 22.7 15 Oeste 25 Oeste 0 -- -- 67
2020-05-28 13:00:00 23.2 15 Oeste 19 Oeste 0 -- -- 66
2020-05-28 12:00:00 24.2 6 Sudoeste 11 Oeste 0 -- -- 67
2020-05-28 11:00:00 23.5 4 Sur 11 Oeste -- -- -- 70
2020-05-28 10:00:00 22.3 8 Oeste 13 Oeste -- -- -- 71
2020-05-28 09:00:00 21.9 5 Oeste 9 Nordeste 0 -- -- 77
2020-05-28 08:00:00 19.5 0 Calma 15 Oeste 0 -- -- 81
2020-05-28 07:00:00 19.8 4 Sur 15 Sudoeste 0 -- -- 81
2020-05-28 06:00:00 19.6 3 Este 10 Sudoeste 0 -- -- 81
2020-05-28 05:00:00 20.3 0 Calma 10 Sudoeste 0 -- -- 80
2020-05-28 04:00:00 20.2 6 Oeste 10 Oeste 0 -- -- 81
2020-05-28 03:00:00 20.3 4 Oeste 9 Oeste 0 -- -- 82
2020-05-28 02:00:00 20.6 8 Sur 15 Este 0 -- -- 82
2020-05-28 01:00:00 20.5 8 Sur 16 Sudeste 0 -- -- 82
2020-05-28 00:00:00 20.8 10 Sur 20 Sudoeste 0 -- -- 79
2020-05-27 23:00:00 20.9 8 Sur 19 Sudeste 0 -- -- 78
2020-05-27 22:00:00 20.7 2 Sur 7 Sudeste 0 -- -- 73
2020-05-27 21:00:00 21.1 2 Sur 8 Este 0 -- -- 71
2020-05-27 20:00:00 22.6 4 Sur 9 Sudoeste 0 -- -- 66
2020-05-27 19:00:00 22.9 5 Sudoeste 9 Sur 0 -- -- 64
2020-05-27 18:00:00 23.9 5 Sur 13 Sudeste 0 -- -- 63
2020-05-27 17:00:00 22.7 9 Sudeste 19 Este 0 -- -- 66
2020-05-27 16:00:00 23 12 Sur 20 Sudeste 0 -- -- 65
2020-05-27 15:00:00 22.5 9 Sur 15 Sudeste 0 -- -- 66
2020-05-27 14:00:00 23.8 9 Sur 15 Sur 0 -- -- 66
2020-05-27 13:00:00 23.7 9 Sur 17 Sudoeste 0 -- -- 70
2020-05-27 12:00:00 21.8 11 Sur 23 Sudoeste 0 -- -- 72
2020-05-27 11:00:00 22 8 Sur 21 Sudeste 0 -- -- 77
2020-05-27 10:00:00 21 5 Sur 21 Este 0 -- -- 81
2020-05-27 09:00:00 20.4 0 Calma 14 Sur 0 -- -- 84
2020-05-27 08:00:00 20 2 Sudoeste 12 Sur 0 -- -- 85
2020-05-27 07:00:00 20.2 0 Calma 10 Nordeste 0 -- -- 85
2020-05-27 06:00:00 19.7 0 Calma 14 Sudoeste 0 -- -- 86
2020-05-27 05:00:00 20.3 8 Sur 16 Sudoeste 0 -- -- 86
2020-05-27 04:00:00 20 0 Calma 16 Sudeste 0 -- -- 86
2020-05-27 03:00:00 20.6 2 Sur 8 Este 0 -- -- 84
2020-05-27 02:00:00 20.9 6 Oeste 10 Oeste 0 -- -- 86
2020-05-27 01:00:00 21.1 5 Oeste 10 Oeste 0 -- -- 84
2020-05-27 00:00:00 21.3 3 Oeste 8 Sudoeste 0 -- -- 82
2020-05-26 23:00:00 21.5 3 Oeste 5 Oeste 0 -- -- 79
2020-05-26 22:00:00 21.7 3 Oeste 6 Oeste 0 -- -- 78
2020-05-26 21:00:00 22.1 4 Oeste 12 Oeste 0 -- -- 76
2020-05-26 20:00:00 23.4 9 Oeste 14 Oeste 0 -- -- 73
2020-05-26 19:00:00 23.5 12 Oeste 15 Oeste 0 -- -- 69
2020-05-26 18:00:00 25.1 8 Oeste 12 Oeste 0 -- -- 63
2020-05-26 17:00:00 25.8 6 Sur 18 Sudeste 0 -- -- 67
2020-05-26 16:00:00 23.7 15 Sudeste 20 Sudoeste 0 -- -- 69
2020-05-26 15:00:00 24.6 10 Sudeste 14 Sudeste 0 -- -- 66
2020-05-26 14:00:00 26.2 4 Sur 13 Oeste 0 -- -- 63
2020-05-26 13:00:00 24.9 9 Oeste 17 Oeste 0 -- -- 69
2020-05-26 12:00:00 22.7 11 Oeste 15 Oeste 0 -- -- 72
2020-05-26 11:00:00 23.9 3 Sudoeste 13 Oeste 0 -- -- 72
2020-05-26 10:00:00 22.7 8 Oeste 12 Oeste 0 -- -- 76
2020-05-26 09:00:00 21.7 0 Calma 15 Sudoeste 0 -- -- 78
2020-05-26 08:00:00 20.2 3 Sur 14 Sudoeste 0 -- -- 83
2020-05-26 07:00:00 19.9 0 Calma 17 Sudeste 0 -- -- 84
2020-05-26 06:00:00 20.2 5 Sur 14 Sudoeste 0 -- -- 84
2020-05-26 05:00:00 20.7 5 Sur 12 Sudeste 0 -- -- 84
2020-05-26 04:00:00 20.2 0 Calma 5 Nordeste 0 -- -- 82
2020-05-26 03:00:00 19.9 0 Calma 7 Este 0 -- -- 81
2020-05-26 02:00:00 20.5 2 Sudeste 6 Este 0 -- -- 82
2020-05-26 01:00:00 20.6 0 Calma 4 Oeste 0 -- -- 81
2020-05-26 00:00:00 20.7 2 Sudoeste 5 Oeste 0 -- -- 80
2020-05-25 23:00:00 20.8 0 Calma 4 Oeste 0 -- -- 77
2020-05-25 22:00:00 21 0 Calma 4 Sudoeste 0 -- -- 76
2020-05-25 21:00:00 21.6 2 Sur 8 Sudoeste 0 -- -- 72
2020-05-25 20:00:00 23 4 Sudoeste 12 Sudoeste 0 -- -- 69
2020-05-25 19:00:00 23.5 7 Sudoeste 11 Oeste 0 -- -- 67
2020-05-25 18:00:00 24.6 5 Sudoeste 9 Sur 0 -- -- 62
2020-05-25 17:00:00 25.1 7 Sur 11 Sudoeste 0 -- -- 65
2020-05-25 16:00:00 23.9 10 Sudoeste 21 Sur 0 -- -- 68
2020-05-25 15:00:00 23.7 13 Sur 17 Sur 0 -- -- 69
2020-05-25 14:00:00 24 7 Sur 12 Sur 0 -- -- 68
2020-05-25 13:00:00 24.6 5 Sur 11 Oeste 0 -- -- 66
2020-05-25 12:00:00 23.8 10 Oeste 19 Oeste 0 -- -- 72
2020-05-25 11:00:00 23.4 9 Oeste 14 Oeste 0 -- -- 74
2020-05-25 10:00:00 22.1 9 Oeste 14 Oeste 0 -- -- 77
2020-05-25 09:00:00 22.6 0 Calma 7 Sur 0 -- -- 81
2020-05-25 08:00:00 18.8 2 Este 23 Este 0 -- -- 78
2020-05-25 07:00:00 20.1 5 Sur 26 Oeste 0.1 -- -- 87
2020-05-25 06:00:00 20.3 13 Sudeste 25 Sudeste 0 -- -- 86
2020-05-25 05:00:00 20.2 5 Sur 19 Sudeste 0 -- -- 87
2020-05-25 04:00:00 20.4 3 Sur 13 Sudeste 0 -- -- 87
2020-05-25 03:00:00 20.2 0 Calma 10 Sudoeste 0 -- -- 87
2020-05-25 02:00:00 20.8 3 Sur 13 Sudeste 0 -- -- 86
2020-05-25 01:00:00 20.7 0 Calma 4 Sudeste 0 -- -- 84
2020-05-25 00:00:00 20.7 0 Calma 6 Sudeste 0 -- -- 84
2020-05-24 23:00:00 21.1 0 Calma 18 Sudoeste 0 -- -- 83
2020-05-24 22:00:00 21.8 7 Sur 18 Este 0 -- -- 82
2020-05-24 21:00:00 22.2 7 Sudeste 18 Sudeste 0 -- -- 79
2020-05-24 20:00:00 23.2 8 Sudeste 15 Sudeste 0 -- -- 73
2020-05-24 19:00:00 24.5 5 Sudoeste 27 Oeste 0 -- -- 72
2020-05-24 18:00:00 22.6 21 Oeste 30 Oeste 0 -- -- 75
2020-05-24 17:00:00 22.1 24 Oeste 30 Oeste 0 -- -- 75
2020-05-24 16:00:00 23.1 17 Oeste 23 Oeste 0 -- -- 66
2020-05-24 15:00:00 24.4 10 Oeste 15 Oeste 0 -- -- 61
2020-05-24 14:00:00 25.5 7 Sur 22 Sudeste 0 -- -- 59
2020-05-24 13:00:00 24.4 19 Sudeste 24 Sudeste 0 -- -- 61
2020-05-24 12:00:00 28.6 6 Sudeste 15 Oeste 0 -- -- 45
2020-05-24 11:00:00 28.3 2 Sudoeste 12 Sudoeste 0 -- -- 42
2020-05-24 10:00:00 27.1 5 Sur 11 Sudeste 0 -- -- 46
2020-05-24 09:00:00 24.6 5 Nordeste 13 Norte 0 -- -- 47
2020-05-24 08:00:00 22.7 10 Norte 39 Norte 0 -- -- 51
2020-05-24 07:00:00 22.1 7 Nordeste 15 Sudeste 0 -- -- 53
2020-05-24 06:00:00 21.9 6 Nordeste 12 Sur 0 -- -- 58
2020-05-24 05:00:00 21.8 0 Calma 14 Norte 0 -- -- 60
2020-05-24 04:00:00 21.2 5 Nordeste 11 Sudeste 0 -- -- 69
2020-05-24 03:00:00 21.2 0 Calma 17 Norte 0 -- -- 84
2020-05-24 02:00:00 21.1 0 Calma 6 Sudoeste 0 -- -- 84
2020-05-24 01:00:00 21.3 2 Sur 12 Sudeste 0 -- -- 83
2020-05-24 00:00:00 21.5 6 Sur 18 Sudoeste 0 -- -- 83
2020-05-23 23:00:00 21.7 9 Sur 32 Sudoeste 0 -- -- 82
2020-05-23 22:00:00 22.8 12 Sudeste 24 Sudoeste 0 -- -- 76
2020-05-23 21:00:00 23.8 5 Sudeste 9 Sudeste 0 -- -- 68
2020-05-23 20:00:00 26.1 3 Sudeste 7 Sudeste 0 -- -- 62
2020-05-23 19:00:00 28.1 0 Calma 10 Sudeste 0 -- -- 55
2020-05-23 18:00:00 27.1 10 Sudeste 16 Sudeste 0 -- -- 63
2020-05-23 17:00:00 27.2 6 Sudeste 10 Sudoeste 0 -- -- 58
2020-05-23 16:00:00 27 7 Sudeste 13 Sur 0 -- -- 62
2020-05-23 15:00:00 26.3 8 Sudeste 15 Sudoeste 0 -- -- 60
2020-05-23 14:00:00 27.3 6 Sur 8 Sudeste 0 -- -- 55
2020-05-23 13:00:00 27.6 4 Sur 9 Oeste 0 -- -- 54
2020-05-23 12:00:00 26.7 4 Sur 11 Oeste 0 -- -- 57
2020-05-23 11:00:00 25.1 9 Oeste 17 Oeste 0 -- -- 56
2020-05-23 10:00:00 26 0 Calma 12 Sudoeste 0 -- -- 56
2020-05-23 09:00:00 22.6 0 Calma 14 Norte 0 -- -- 56
2020-05-23 08:00:00 20.8 0 Calma 13 Nordeste 0 -- -- 61
2020-05-23 07:00:00 20.5 3 Nordeste 15 Norte 0 -- -- 62
2020-05-23 06:00:00 20.3 3 Este 14 Sur 0 -- -- 64
2020-05-23 05:00:00 20.3 0 Calma 6 Sudoeste 0 -- -- 71
2020-05-23 04:00:00 20.8 2 Este 13 Nordeste 0 -- -- 69
2020-05-23 03:00:00 20.5 0 Calma 7 Nordeste 0 -- -- 74
2020-05-23 02:00:00 21.3 0 Calma 11 Norte 0 -- -- 78
2020-05-23 01:00:00 21 2 Sur 9 Este 0 -- -- 79
2020-05-23 00:00:00 21.1 5 Sudoeste 21 Oeste 0 -- -- 77
2020-05-22 23:00:00 21.5 0 Calma 24 Sudeste 0 -- -- 76
2020-05-22 22:00:00 21.5 9 Sur 21 Sudeste 0 -- -- 75
2020-05-22 21:00:00 22.1 8 Sudeste 17 Sudeste 0 -- -- 68
2020-05-22 20:00:00 23.2 4 Sudoeste 11 Sudeste 0 -- -- 64
2020-05-22 19:00:00 23.5 10 Sudeste 18 Sudeste 0 -- -- 63
2020-05-22 18:00:00 23.9 10 Sudeste 14 Sudeste 0 -- -- 62
2020-05-22 17:00:00 24.5 7 Sur 11 Sur 0 -- -- 60
2020-05-22 16:00:00 25.4 5 Sudoeste 10 Oeste 0 -- -- 55
2020-05-22 15:00:00 25.2 5 Sudeste 13 Sudeste 0 -- -- 57
2020-05-22 14:00:00 24.8 5 Sur 11 Sudeste 0 -- -- 59
2020-05-22 13:00:00 25.5 3 Sur 8 Sur 0 -- -- 57
2020-05-22 12:00:00 24.6 3 Sudoeste 11 Sudoeste 0 -- -- 61
2020-05-22 11:00:00 22.9 6 Sudoeste 11 Oeste 0 -- -- 62
2020-05-22 10:00:00 22.2 7 Oeste 12 Oeste 0 -- -- 66
2020-05-22 09:00:00 20 0 Calma 12 Nordeste 0 -- -- 69
2020-05-22 08:00:00 17.9 3 Nordeste 15 Norte 0 -- -- 72
2020-05-22 07:00:00 17.8 4 Nordeste 14 Nordeste 0 -- -- 72
2020-05-22 06:00:00 18.4 3 Nordeste 12 Norte 0 -- -- 71
2020-05-22 05:00:00 18.6 3 Este 11 Nordeste 0 -- -- 72
2020-05-22 04:00:00 18.8 3 Este 10 Sur 0 -- -- 72
2020-05-22 03:00:00 19.2 3 Nordeste 11 Sur 0 -- -- 72
2020-05-22 02:00:00 19.7 2 Este 8 Nordeste 0 -- -- 72
2020-05-22 01:00:00 20.3 0 Calma 9 Sudoeste 0 -- -- 72
2020-05-22 00:00:00 20.4 2 Sur 14 Sudeste 0 -- -- 72
2020-05-21 23:00:00 20.5 5 Sudeste 14 Sudeste 0 -- -- 71
2020-05-21 22:00:00 20.7 5 Sudoeste 19 Oeste 0 -- -- 71
2020-05-21 21:00:00 20.9 12 Sudoeste 17 Sudoeste 0 -- -- 69
2020-05-21 20:00:00 21.6 9 Sudoeste 16 Sur 0 -- -- 66
2020-05-21 19:00:00 22.1 15 Sur 19 Sur 0 -- -- 66
2020-05-21 18:00:00 22.5 15 Sur 19 Sudeste 0 -- -- 66
2020-05-21 17:00:00 23.1 12 Sur 19 Sudeste 0 -- -- 62
2020-05-21 16:00:00 22.5 13 Sudeste 21 Sudeste 0 -- -- 62
2020-05-21 15:00:00 23.7 9 Sudeste 18 Este 0 -- -- 58
2020-05-21 14:00:00 23.1 9 Sur 16 Sudoeste 0 -- -- 60
2020-05-21 13:00:00 23.5 6 Sur 11 Este 0 -- -- 57
2020-05-21 12:00:00 24.4 4 Sur 18 Sudoeste 0 -- -- 59
2020-05-21 11:00:00 22.2 12 Sudoeste 18 Sudoeste 0 -- -- 64
2020-05-21 10:00:00 22.5 8 Sudoeste 10 Sudeste 0 -- -- 62
2020-05-21 09:00:00 21.7 0 Calma 13 Sudeste 0 -- -- 59
2020-05-21 08:00:00 18.5 2 Este 14 Norte 0 -- -- 58
2020-05-21 07:00:00 18.8 2 Este 14 Sur 0 -- -- 58
2020-05-21 06:00:00 19.1 2 Sudeste 15 Sur 0 -- -- 61
2020-05-21 05:00:00 19.6 4 Nordeste 14 Sur 0 -- -- 70
2020-05-21 04:00:00 19.4 3 Nordeste 14 Norte 0 -- -- 75
2020-05-21 03:00:00 19.9 3 Nordeste 9 Norte 0 -- -- 76
2020-05-21 02:00:00 20.6 3 Sur 6 Este 0 -- -- 76
2020-05-21 01:00:00 20.6 0 Calma 8 Sudoeste 0 -- -- 73
2020-05-21 00:00:00 21.3 4 Sudoeste 17 Sudeste 0 -- -- 71
2020-05-20 23:00:00 22 13 Sudeste 18 Sudoeste 0 -- -- 66
2020-05-20 22:00:00 22.4 8 Sur 15 Sudeste 0 -- -- 64
2020-05-20 21:00:00 22.5 3 Este 11 Oeste 0 -- -- 62
2020-05-20 20:00:00 22.5 12 Oeste 15 Oeste 0 -- -- 68
2020-05-20 19:00:00 24.3 4 Sur 12 Sudeste 0 -- -- 66
2020-05-20 18:00:00 23.3 8 Sudeste 14 Sudeste 0 -- -- 66
2020-05-20 17:00:00 24.3 8 Sudeste 14 Sudeste 0 -- -- 62
2020-05-20 16:00:00 25.2 5 Sudoeste 14 Oeste 0 -- -- 57
2020-05-20 15:00:00 25.2 6 Sudoeste 11 Oeste 0 -- -- 57
2020-05-20 14:00:00 24.5 6 Sur 14 Este 0 -- -- 57
2020-05-20 13:00:00 25.5 3 Sur 9 Sudoeste 0 -- -- 59
2020-05-20 12:00:00 23.9 5 Sudoeste 10 Sudoeste 0 -- -- 62
2020-05-20 11:00:00 23.8 4 Sudoeste 7 Sudoeste 0 -- -- 61
2020-05-20 10:00:00 24 3 Sur 7 Sur 0 -- -- 64
2020-05-20 09:00:00 19.9 2 Sur 13 Norte 0 -- -- 67
2020-05-20 08:00:00 17.9 2 Sudeste 14 Sur 0 -- -- 69
2020-05-20 07:00:00 18 3 Sudeste 13 Norte 0 -- -- 70
2020-05-20 06:00:00 18.2 0 Calma 12 Sur 0 -- -- 70
2020-05-20 05:00:00 19 2 Nordeste 10 Norte 0 -- -- 69
2020-05-20 04:00:00 19.7 2 Nordeste 9 Sur 0 -- -- 68
2020-05-20 03:00:00 20.5 4 Sur 10 Sudoeste 0 -- -- 73
2020-05-20 02:00:00 20.7 6 Sur 12 Sudoeste 0 -- -- 75
2020-05-20 01:00:00 20.9 9 Sudoeste 12 Sudoeste 0 -- -- 73
2020-05-20 00:00:00 20.9 5 Sudoeste 11 Sur 0 -- -- 72
2020-05-19 23:00:00 20.8 5 Sur 16 Sudeste 0 -- -- 72
2020-05-19 22:00:00 21 7 Sudeste 15 Oeste 0 -- -- 72
2020-05-19 21:00:00 20.9 7 Sudeste 10 Sudeste 0 -- -- 71
2020-05-19 20:00:00 21.7 8 Sudeste 19 Sudeste 0 -- -- 68
2020-05-19 19:00:00 21.9 14 Sudeste 23 Sudeste 0 -- -- 67
2020-05-19 18:00:00 23.4 15 Sudeste 23 Sudoeste 0 -- -- 63
2020-05-19 17:00:00 22.8 10 Sudeste 14 Sudoeste 0 -- -- 63
2020-05-19 16:00:00 23.6 8 Sur 13 Sudeste 0 -- -- 62
2020-05-19 15:00:00 23.4 8 Sur 11 Sur 0 -- -- 61
2020-05-19 14:00:00 24.3 9 Sur 13 Sur 0 -- -- 60
2020-05-19 13:00:00 22.7 8 Sudoeste 14 Sudoeste 0 -- -- 61
2020-05-19 12:00:00 22.4 9 Sudoeste 12 Sudoeste 0 -- -- 60
2020-05-19 11:00:00 23.1 6 Sur 11 Sur 0 -- -- 60
2020-05-19 10:00:00 21.5 8 Sur 13 Sur 0 -- -- 62
2020-05-19 09:00:00 19.5 0 Calma 15 Sudeste 0 -- -- 58
2020-05-19 08:00:00 17.5 3 Sudeste 17 Sur 0 -- -- 63
2020-05-19 07:00:00 17.5 2 Sur 17 Norte 0 -- -- 65
2020-05-19 06:00:00 17.6 0 Calma 15 Sur 0 -- -- 65
2020-05-19 05:00:00 18.3 0 Calma 15 Norte 0 -- -- 65
2020-05-19 04:00:00 18.8 2 Este 13 Nordeste 0 -- -- 65
2020-05-19 03:00:00 19.4 2 Este 11 Sur 0 -- -- 68
2020-05-19 02:00:00 20.4 5 Sur 12 Sudoeste 0 -- -- 67
2020-05-19 01:00:00 20.4 3 Sur 9 Sudeste 0 -- -- 68
2020-05-19 00:00:00 20.2 3 Sudoeste 9 Sur 0 -- -- 69
2020-05-18 23:00:00 20.3 8 Sur 11 Sur 0 -- -- 69
2020-05-18 22:00:00 20.5 6 Sudoeste 9 Sudoeste 0 -- -- 65
2020-05-18 21:00:00 20.4 5 Sur 13 Sudeste 0 -- -- 63
2020-05-18 20:00:00 21.1 10 Sur 18 Sudeste 0 -- -- 62
2020-05-18 19:00:00 21.7 13 Sudeste 20 Sudeste 0 -- -- 60
2020-05-18 18:00:00 23.1 10 Sudeste 19 Sudeste 0 -- -- 57
2020-05-18 17:00:00 22.7 7 Sur 14 Sudoeste 0 -- -- 59
2020-05-18 16:00:00 22.5 7 Sur 12 Sur 0 -- -- 59
2020-05-18 15:00:00 23.1 7 Sur 15 Sudoeste 0 -- -- 59
2020-05-18 14:00:00 22.6 8 Sudoeste 12 Sudoeste 0 -- -- 59
2020-05-18 13:00:00 22.4 5 Sudoeste 14 Oeste 0 -- -- 59
2020-05-18 12:00:00 21.6 7 Sudoeste 12 Oeste 0 -- -- 57
2020-05-18 11:00:00 21.4 4 Sudoeste 8 Sudoeste 0 -- -- 57
2020-05-18 10:00:00 21.2 2 Sudoeste 9 Norte 0 -- -- 56
2020-05-18 09:00:00 19.5 0 Calma 15 Norte 0 -- -- 55
2020-05-18 08:00:00 18 3 Sudeste 15 Sur 0 -- -- 57
2020-05-18 07:00:00 18 0 Calma 14 Norte 0 -- -- 58
2020-05-18 06:00:00 18 2 Sur 14 Norte 0 -- -- 56
2020-05-18 05:00:00 18.3 0 Calma 15 Norte 0 -- -- 56
2020-05-18 04:00:00 18.3 2 Este 33 Norte 0 -- -- 56
2020-05-18 03:00:00 19 0 Calma 12 Norte 0 -- -- 54
2020-05-18 02:00:00 19.7 0 Calma 10 Sudoeste 0 -- -- 58
2020-05-18 01:00:00 19.7 2 Sur 12 Este 0 -- -- 65
2020-05-18 00:00:00 20.3 5 Sur 10 Sudoeste 0 -- -- 62
2020-05-17 23:00:00 20.7 4 Sur 10 Oeste 0 -- -- 60
2020-05-17 22:00:00 20.8 0 Calma 12 Este 0 -- -- 59
2020-05-17 21:00:00 20.6 0 Calma 15 Oeste 0 -- -- 62
2020-05-17 20:00:00 20.7 12 Sudoeste 24 Oeste 0 -- -- 61
2020-05-17 19:00:00 21.3 13 Oeste 21 Oeste 0 -- -- 59
2020-05-17 18:00:00 22 10 Oeste 15 Oeste 0 -- -- 55
2020-05-17 17:00:00 22.4 13 Sur 30 Sur 0 -- -- 56
2020-05-17 16:00:00 21.2 20 Sur 28 Sudeste 0 -- -- 58
2020-05-17 15:00:00 22.8 10 Sur 14 Sudoeste 0 -- -- 51
2020-05-17 14:00:00 23.5 10 Sudoeste 16 Sudoeste 0 -- -- 49
2020-05-17 13:00:00 23.5 7 Sudoeste 14 Oeste 0 -- -- 49
2020-05-17 12:00:00 22.3 10 Sudoeste 13 Sudoeste 0 -- -- 53
2020-05-17 11:00:00 22.5 8 Sur 11 Sur 0 -- -- 51
2020-05-17 10:00:00 21.6 5 Sur 15 Sudoeste 0 -- -- 55
2020-05-17 09:00:00 20.8 0 Calma 9 Nordeste 0 -- -- 53
2020-05-17 08:00:00 19.7 0 Calma 10 Sur 0 -- -- 53
2020-05-17 07:00:00 19.5 3 Oeste 10 Noroeste 0 -- -- 54
2020-05-17 06:00:00 19.8 0 Calma 10 Nordeste 0 -- -- 51
2020-05-17 05:00:00 19.6 0 Calma 11 Sudeste 0 -- -- 53
2020-05-17 04:00:00 19.1 0 Calma 10 Sur 0 -- -- 53
2020-05-17 03:00:00 18.7 0 Calma 9 Nordeste 0 -- -- 52
2020-05-17 02:00:00 18.8 0 Calma 9 Norte 0 -- -- 51
2020-05-17 01:00:00 19.5 2 Nordeste 8 Nordeste 0 -- -- 50
2020-05-17 00:00:00 20.2 0 Calma 9 Norte 0 -- -- 50
2020-05-16 23:00:00 20.1 0 Calma 15 Sudoeste 0 -- -- 54
2020-05-16 22:00:00 20.1 4 Sur 17 Sudeste 0 -- -- 56
2020-05-16 21:00:00 20.2 8 Sur 22 Sudoeste 0 -- -- 56
2020-05-16 20:00:00 20.7 14 Sudoeste 22 Sudoeste 0 -- -- 54
2020-05-16 19:00:00 21.4 15 Sur 19 Sudoeste 0 -- -- 51
2020-05-16 18:00:00 22.3 15 Sur 27 Sudoeste 0 -- -- 51
2020-05-16 17:00:00 21 20 Sur 28 Sur 0 -- -- 52
2020-05-16 16:00:00 21.3 16 Sur 28 Sudoeste 0 -- -- 50
2020-05-16 15:00:00 21.3 17 Sur 32 Sudoeste 0 -- -- 51
2020-05-16 14:00:00 21.5 17 Sur 39 Sudeste 0 -- -- 51
2020-05-16 13:00:00 21.5 17 Sur 41 Este 0 -- -- 53
2020-05-16 12:00:00 22 17 Sur 47 Sudeste 0 -- -- 49
2020-05-16 11:00:00 23.9 0 Calma 24 Oeste 0 -- -- 39
2020-05-16 10:00:00 21.7 6 Sudoeste 25 Sur 0 -- -- 45
2020-05-16 09:00:00 20.7 0 Calma 15 Oeste 0 -- -- 48
2020-05-16 08:00:00 18.9 3 Oeste 8 Oeste 0 -- -- 48
2020-05-16 07:00:00 18.8 0 Calma 13 Sudoeste 0 -- -- 48
2020-05-16 06:00:00 18.6 0 Calma 14 Oeste 0 -- -- 50
2020-05-16 05:00:00 19.6 2 Sudoeste 9 Sudoeste 0 -- -- 49
2020-05-16 04:00:00 19.9 2 Sudoeste 19 Sur 0 -- -- 48
2020-05-16 03:00:00 20.4 7 Sudoeste 22 Sur 0 -- -- 48
2020-05-16 02:00:00 20.2 2 Sudoeste 16 Noroeste 0 -- -- 51
2020-05-16 01:00:00 20.5 2 Sudoeste 24 Norte 0 -- -- 48
2020-05-16 00:00:00 20.8 0 Calma 26 Sur 0 -- -- 46
2020-05-15 23:00:00 21.1 2 Sur 22 Nordeste 0 -- -- 47
2020-05-15 22:00:00 20.7 0 Calma 14 Sudoeste 0 -- -- 58
2020-05-15 21:00:00 20.6 9 Sur 20 Sudeste 0 -- -- 61
2020-05-15 20:00:00 21.4 13 Sur 93 Sudeste 0 -- -- 59
2020-05-15 19:00:00 23.8 0 Calma 35 Noroeste 0 -- -- 41
2020-05-15 18:00:00 24.1 5 Oeste 42 Oeste 0 -- -- 43
2020-05-15 17:00:00 23.7 21 Oeste 45 Oeste 0 -- -- 44
2020-05-15 16:00:00 24 8 Sudoeste 28 Sur 0 -- -- 45
2020-05-15 15:00:00 23.2 9 Sur 24 Este 0 -- -- 53
2020-05-15 14:00:00 21.5 13 Sur 32 Sur 0 -- -- 54
2020-05-15 13:00:00 22.4 14 Sudoeste 37 Sur 0 -- -- 50
2020-05-15 12:00:00 22.7 8 Sudoeste 33 Sur 0 -- -- 50
2020-05-15 11:00:00 20.8 11 Sudoeste 42 Sudoeste 0 -- -- 53
2020-05-15 10:00:00 20.4 20 Oeste 39 Oeste 0 -- -- 54
2020-05-15 09:00:00 20.4 16 Sudoeste 31 Sur 0 -- -- 51
2020-05-15 08:00:00 19.5 12 Sudoeste 33 Sudeste 0 -- -- 49
2020-05-15 07:00:00 19.1 4 Sur 20 Sur 0 -- -- 47
2020-05-15 06:00:00 19.1 8 Sudoeste 22 Sudoeste 0 -- -- 48
2020-05-15 05:00:00 19 8 Sur 47 Sur 0 -- -- 47
2020-05-15 04:00:00 19.3 12 Sur 49 Sur 0 -- -- 45
2020-05-15 03:00:00 19.2 13 Sur 44 Sur 0 -- -- 45
2020-05-15 02:00:00 19.7 15 Sur 45 Norte 0 -- -- 49
2020-05-15 01:00:00 19.9 13 Sur 40 Sudoeste 0 -- -- 49
2020-05-15 00:00:00 20.3 9 Sur 38 Sur 0 -- -- 46
2020-05-14 23:00:00 20.4 12 Sur 57 Norte 0 -- -- 48
2020-05-14 22:00:00 20.5 14 Sur 44 Sur 0 -- -- 46
2020-05-14 21:00:00 21.1 4 Sur 36 Norte 0 -- -- 40
2020-05-14 20:00:00 21.5 5 Sur 41 Sudeste 0 -- -- 45
2020-05-14 19:00:00 21.9 7 Este 45 Nordeste 0 -- -- 46
2020-05-14 18:00:00 24.4 2 Sur 51 Oeste 0 -- -- 45
2020-05-14 17:00:00 22.8 27 Oeste 42 Oeste 0 -- -- 53
2020-05-14 16:00:00 21.9 21 Oeste 31 Sudoeste 0 -- -- 55
2020-05-14 15:00:00 23.1 13 Sur 18 Sudoeste 0 -- -- 49
2020-05-14 14:00:00 24.2 10 Sur 14 Sur 0 -- -- 48
2020-05-14 13:00:00 23.5 10 Sur 16 Sur 0 -- -- 49
2020-05-14 12:00:00 22.2 11 Sur 18 Sur 0 -- -- 53
2020-05-14 11:00:00 21.7 12 Sur 19 Sudoeste 0 -- -- 52
2020-05-14 10:00:00 22.8 15 Sudoeste 20 Sudoeste 0 -- -- 45
2020-05-14 09:00:00 21.3 9 Sudoeste 28 Sur 0 -- -- 48
2020-05-14 08:00:00 20.5 5 Sur 14 Sur 0 -- -- 48
2020-05-14 07:00:00 19.1 2 Sur 21 Sudoeste 0 -- -- 48
2020-05-14 06:00:00 19 0 Calma 6 Sudeste 0 -- -- 47
2020-05-14 05:00:00 19.5 0 Calma 7 Este 0 -- -- 48
2020-05-14 04:00:00 19.4 2 Oeste 9 Sur 0 -- -- 49
2020-05-14 03:00:00 20.1 3 Sur 19 Sudeste 0 -- -- 46
2020-05-14 02:00:00 20.2 4 Sur 18 Sudoeste 0 -- -- 45
2020-05-14 01:00:00 20.4 5 Sur 21 Sudoeste 0 -- -- 48
2020-05-14 00:00:00 20.9 5 Sur 23 Sudeste 0 -- -- 48
2020-05-13 23:00:00 21 6 Sur 21 Sudeste 0 -- -- 46
2020-05-13 22:00:00 21.7 2 Sudeste 34 Oeste 0 -- -- 48
2020-05-13 21:00:00 22.5 5 Sur 39 Oeste 0 -- -- 51
2020-05-13 20:00:00 24.5 13 Oeste 40 Oeste 0 -- -- 46
2020-05-13 19:00:00 23.2 27 Oeste 40 Oeste 0 -- -- 52
2020-05-13 18:00:00 23.2 24 Oeste 43 Oeste 0 -- -- 54
2020-05-13 17:00:00 22.1 25 Oeste 47 Oeste 0 -- -- 65
2020-05-13 16:00:00 22.5 36 Oeste 58 Oeste 0 -- -- 59
2020-05-13 15:00:00 23.9 18 Oeste 44 Oeste 0 -- -- 46
2020-05-13 14:00:00 26.6 7 Sudoeste 42 Oeste 0 -- -- 35
2020-05-13 13:00:00 22.8 23 Oeste 32 Oeste 0 -- -- 51
2020-05-13 12:00:00 24.2 9 Sudoeste 33 Oeste 0 -- -- 45
2020-05-13 11:00:00 22.8 16 Oeste 32 Sudoeste 0 -- -- 50
2020-05-13 10:00:00 23.4 7 Oeste 22 Oeste 0 -- -- 49
2020-05-13 09:00:00 21.8 2 Sur 17 Sudoeste 0 -- -- 50
2020-05-13 08:00:00 20.9 0 Calma 16 Norte 0 -- -- 53
2020-05-13 07:00:00 20.5 6 Sudoeste 24 Sur 0 -- -- 58
2020-05-13 06:00:00 20.3 0 Calma 15 Sudoeste 0 -- -- 67
2020-05-13 05:00:00 20.2 0 Calma 12 Este 0 -- -- 67
2020-05-13 04:00:00 20.3 6 Sur 13 Sudeste 0 -- -- 67
2020-05-13 03:00:00 20.5 9 Sur 16 Sur 0 -- -- 69
2020-05-13 02:00:00 20.5 9 Sur 14 Sur 0 -- -- 67
2020-05-13 01:00:00 20.4 4 Sur 12 Sudoeste 0 -- -- 66
2020-05-13 00:00:00 20.5 5 Sudoeste 19 Sudeste 0 -- -- 65
2020-05-12 23:00:00 20.7 6 Sudoeste 21 Sudoeste 0 -- -- 64
2020-05-12 22:00:00 20.9 7 Sur 17 Este 0 -- -- 62
2020-05-12 21:00:00 21.8 8 Sur 38 Este 0 -- -- 57
2020-05-12 20:00:00 21.7 17 Sur 36 Sudoeste 0 -- -- 60
2020-05-12 19:00:00 24.3 14 Oeste 31 Oeste 0 -- -- 45
2020-05-12 18:00:00 23.7 13 Sur 45 Este 0 -- -- 50
2020-05-12 17:00:00 24.9 22 Oeste 41 Oeste 0 -- -- 40
2020-05-12 16:00:00 25.1 10 Oeste 52 Oeste 0 -- -- 44
2020-05-12 15:00:00 23 13 Oeste 42 Oeste 0 -- -- 51
2020-05-12 14:00:00 22.9 12 Sur 27 Sudeste 0 -- -- 55
2020-05-12 13:00:00 23.3 6 Sur 28 Oeste 0 -- -- 49
2020-05-12 12:00:00 23.9 6 Sur 34 Sur 0 -- -- 44
2020-05-12 11:00:00 23.3 7 Sur 32 Sur 0 -- -- 47
2020-05-12 10:00:00 22.5 9 Sur 26 Sudoeste 0 -- -- 48
2020-05-12 09:00:00 22.6 4 Sudoeste 16 Oeste 0 -- -- 48
2020-05-12 08:00:00 20.3 0 Calma 16 Este 0 -- -- 48
2020-05-12 07:00:00 20.3 5 Sur 22 Sudeste 0 -- -- 47
2020-05-12 06:00:00 20.2 7 Sur 24 Sudoeste 0 -- -- 48
2020-05-12 05:00:00 20.1 3 Sur 21 Sudoeste 0 -- -- 48
2020-05-12 04:00:00 20.3 3 Sur 14 Sudoeste 0 -- -- 48
2020-05-12 03:00:00 20.8 3 Sur 20 Sudoeste 0 -- -- 47
2020-05-12 02:00:00 21 7 Sur 20 Sur 0 -- -- 48
2020-05-12 01:00:00 20.8 5 Sudoeste 10 Sudoeste 0 -- -- 74
2020-05-12 00:00:00 21.3 6 Sudoeste 13 Sudoeste 0 -- -- 70
2020-05-11 23:00:00 21.4 3 Sur 24 Oeste 0 -- -- 68
2020-05-11 22:00:00 21.3 6 Sudoeste 25 Oeste 0 -- -- 70
2020-05-11 21:00:00 21.3 4 Sudoeste 20 Oeste 0 -- -- 68
2020-05-11 20:00:00 22 15 Oeste 20 Oeste 0 -- -- 67
2020-05-11 19:00:00 22.6 9 Sur 20 Sudoeste 0 -- -- 64
2020-05-11 18:00:00 22.6 11 Sur 22 Sudeste 0 -- -- 64
2020-05-11 17:00:00 22.7 12 Sur 23 Sudeste 0 -- -- 63
2020-05-11 16:00:00 23.3 14 Sur 26 Sudeste 0 -- -- 62
2020-05-11 15:00:00 23 13 Sur 21 Sudoeste 0 -- -- 63
2020-05-11 14:00:00 22.5 12 Sur 18 Sudoeste 0 -- -- 65
2020-05-11 13:00:00 23.3 12 Sudoeste 21 Sudoeste 0 -- -- 62
2020-05-11 12:00:00 22.6 15 Sudoeste 19 Sudoeste 0 -- -- 65
2020-05-11 11:00:00 23.2 7 Sudoeste 11 Sudoeste 0 -- -- 62
2020-05-11 10:00:00 22.4 6 Sudoeste 10 Sudoeste 0 -- -- 66
2020-05-11 09:00:00 21.3 2 Sudoeste 10 Sudeste 0 -- -- 66
2020-05-11 08:00:00 18.9 8 Sur 12 Sur 0 -- -- 69
2020-05-11 07:00:00 18.7 8 Sur 12 Sur 0 -- -- 69
2020-05-11 06:00:00 19.7 5 Sur 13 Sudoeste 0 -- -- 67
2020-05-11 05:00:00 20.4 7 Sudoeste 17 Oeste 0 -- -- 73
2020-05-11 04:00:00 20.5 9 Sudoeste 14 Sudoeste 0 -- -- 72
2020-05-11 03:00:00 20.5 3 Sudoeste 13 Sudoeste 0 -- -- 71
2020-05-11 02:00:00 20.7 5 Sudoeste 17 Oeste 0 -- -- 72
2020-05-11 01:00:00 20.7 6 Sudoeste 15 Oeste 0 -- -- 73
2020-05-11 00:00:00 20.7 3 Sudoeste 10 Sudoeste 0 -- -- 73
2020-05-10 23:00:00 21 7 Sur 17 Sudeste 0 -- -- 72
2020-05-10 22:00:00 21.1 12 Sudoeste 25 Sudeste 0 -- -- 71
2020-05-10 21:00:00 21.4 12 Sur 22 Sudoeste 0 -- -- 68
2020-05-10 20:00:00 22 10 Sur 16 Sudoeste 0 -- -- 64
2020-05-10 19:00:00 23.7 6 Sur 15 Sudeste 0 -- -- 61
2020-05-10 18:00:00 22.9 11 Sur 19 Sur 0 -- -- 63
2020-05-10 17:00:00 23.3 14 Sur 18 Sur 0 -- -- 62
2020-05-10 16:00:00 23.9 12 Sur 19 Sudoeste 0 -- -- 59
2020-05-10 15:00:00 22 14 Sur 23 Sur 0 -- -- 62
2020-05-10 14:00:00 22 14 Sur 20 Sudeste 0 -- -- 62
2020-05-10 13:00:00 21.9 13 Sudoeste 23 Sudoeste 0 -- -- 61
2020-05-10 12:00:00 22.9 14 Sudoeste 24 Sudoeste 0 -- -- 59
2020-05-10 11:00:00 21.9 11 Sur 17 Sudoeste 0 -- -- 62
2020-05-10 10:00:00 23.6 2 Sudoeste 7 Oeste 0 -- -- 57
2020-05-10 09:00:00 20.2 5 Sur 15 Nordeste 0 -- -- 61
2020-05-10 08:00:00 19.3 6 Sur 14 Sur 0 -- -- 67
2020-05-10 07:00:00 18.7 4 Sur 14 Sur 0 -- -- 71
2020-05-10 06:00:00 19.3 2 Sur 10 Sur 0 -- -- 73
2020-05-10 05:00:00 19.9 0 Calma 11 Norte 0 -- -- 73
2020-05-10 04:00:00 19.7 2 Sur 12 Sudoeste 0 -- -- 75
2020-05-10 03:00:00 20.4 4 Oeste 8 Oeste 0 -- -- 76
2020-05-10 02:00:00 20.5 2 Sudoeste 10 Sudeste 0 -- -- 76
2020-05-10 01:00:00 20.6 4 Sur 16 Sudeste 0 -- -- 76
2020-05-10 00:00:00 20.7 7 Sudoeste 17 Este 0 -- -- 76
2020-05-09 23:00:00 20.8 8 Sur 15 Sudoeste 0 -- -- 73
2020-05-09 22:00:00 20.9 7 Sur 15 Sudeste 0 -- -- 72
2020-05-09 21:00:00 21 8 Sur 17 Sudoeste 0 -- -- 71
2020-05-09 20:00:00 22.1 9 Sur 17 Sudoeste 0 -- -- 66
2020-05-09 19:00:00 22.8 9 Sur 17 Sudeste 0 -- -- 65
2020-05-09 18:00:00 23.1 9 Sur 17 Sudeste 0 -- -- 63
2020-05-09 17:00:00 22.8 9 Sur 14 Sur 0 -- -- 63
2020-05-09 16:00:00 23.3 10 Sur 15 Sur 0 -- -- 61
2020-05-09 15:00:00 22.7 11 Sur 15 Sudoeste 0 -- -- 62
2020-05-09 14:00:00 22.4 12 Sur 15 Sur 0 -- -- 64
2020-05-09 13:00:00 22.9 10 Sur 14 Sur 0 -- -- 64
2020-05-09 12:00:00 23 6 Sur 15 Sudeste 0 -- -- 64
2020-05-09 11:00:00 21.9 9 Sur 15 Sudeste 0 -- -- 65
2020-05-09 10:00:00 22.4 5 Sur 12 Sudeste 0 -- -- 65
2020-05-09 09:00:00 19.5 0 Calma 15 Sur 0 -- -- 62
2020-05-09 08:00:00 17.9 2 Este 17 Norte 0 -- -- 64
2020-05-09 07:00:00 18.1 2 Sudeste 15 Norte 0 -- -- 64
2020-05-09 06:00:00 18.5 0 Calma 15 Sur 0 -- -- 64
2020-05-09 05:00:00 19.5 0 Calma 14 Sur 0 -- -- 62
2020-05-09 04:00:00 19.6 3 Sudoeste 11 Norte 0 -- -- 69
2020-05-09 03:00:00 19.8 0 Calma 10 Sudeste 0 -- -- 70
2020-05-09 02:00:00 19.8 0 Calma 10 Norte 0 -- -- 71
2020-05-09 01:00:00 20.3 3 Sur 10 Sudeste 0 -- -- 71
2020-05-09 00:00:00 20.5 6 Sur 21 Este 0 -- -- 71
2020-05-08 23:00:00 20.5 7 Sur 23 Sudoeste 0 -- -- 71
2020-05-08 22:00:00 20.6 10 Sur 23 Sudoeste 0 -- -- 71
2020-05-08 21:00:00 20.6 11 Sudeste 22 Sudoeste 0 -- -- 70
2020-05-08 20:00:00 21 13 Sur 20 Sur 0 -- -- 68
2020-05-08 19:00:00 21.6 14 Sudoeste 19 Sudoeste 0 -- -- 66
2020-05-08 18:00:00 22.1 13 Sudoeste 17 Oeste 0 -- -- 63
2020-05-08 17:00:00 22.4 10 Sudoeste 15 Sudoeste 0 -- -- 62
2020-05-08 16:00:00 23 10 Sudoeste 15 Sur 0 -- -- 60
2020-05-08 15:00:00 23.8 9 Sur 14 Sur 0 -- -- 57
2020-05-08 14:00:00 23 10 Sur 16 Sudeste 0 -- -- 60
2020-05-08 13:00:00 22.9 11 Sur 15 Sur 0 -- -- 61
2020-05-08 12:00:00 23.2 6 Sur 13 Sur 0 -- -- 60
2020-05-08 11:00:00 23.7 4 Sudoeste 10 Oeste 0 -- -- 59
2020-05-08 10:00:00 22.4 6 Oeste 11 Sur 0 -- -- 61
2020-05-08 09:00:00 19.2 0 Calma 15 Sur 0 -- -- 61
2020-05-08 08:00:00 17.8 2 Sudeste 16 Sur 0 -- -- 65
2020-05-08 07:00:00 17.6 3 Sudeste 15 Norte 0 -- -- 66
2020-05-08 06:00:00 17.8 3 Nordeste 15 Norte 0 -- -- 67
2020-05-08 05:00:00 18.1 3 Sudeste 14 Sur 0 -- -- 68
2020-05-08 04:00:00 18.3 2 Sudeste 13 Norte 0 -- -- 69
2020-05-08 03:00:00 19 2 Sudeste 9 Sudeste 0 -- -- 69
2020-05-08 02:00:00 20.1 0 Calma 10 Este 0 -- -- 67
2020-05-08 01:00:00 20.3 0 Calma 10 Nordeste 0 -- -- 67
2020-05-08 00:00:00 20.5 5 Oeste 12 Sur 0 -- -- 66
2020-05-07 23:00:00 20.7 9 Sudoeste 18 Oeste 0 -- -- 67
2020-05-07 22:00:00 20.5 13 Sudoeste 21 Sudoeste 0 -- -- 68
2020-05-07 21:00:00 20.5 12 Sur 28 Sudoeste 0 -- -- 68
2020-05-07 20:00:00 21.3 13 Sur 39 Sudeste 0 -- -- 65
2020-05-07 19:00:00 22 24 Sudeste 41 Sudeste 0 -- -- 65
2020-05-07 18:00:00 23.4 19 Sudeste 27 Sudoeste 0 -- -- 58
2020-05-07 17:00:00 23.7 10 Sur 23 Sudeste 0 -- -- 58
2020-05-07 16:00:00 22.4 19 Sur 26 Sudoeste 0 -- -- 62
2020-05-07 15:00:00 21.8 15 Sudoeste 21 Sudoeste 0 -- -- 63
2020-05-07 14:00:00 22.6 11 Sudoeste 16 Sudoeste 0 -- -- 61
2020-05-07 13:00:00 22.5 8 Sur 15 Sur 0 -- -- 60
2020-05-07 12:00:00 22.2 9 Sur 14 Sur 0 -- -- 64
2020-05-07 11:00:00 21.6 8 Sur 13 Sur 0 -- -- 65
2020-05-07 10:00:00 22 4 Sur 8 Sur 0 -- -- 64
2020-05-07 09:00:00 19.2 3 Sur 14 Sur 0 -- -- 66
2020-05-07 08:00:00 17.9 6 Sur 14 Sur 0 -- -- 71
2020-05-07 07:00:00 17.9 0 Calma 13 Norte 0 -- -- 73
2020-05-07 06:00:00 18.1 3 Nordeste 13 Norte 0 -- -- 72
2020-05-07 05:00:00 18.9 0 Calma 13 Norte 0 -- -- 72
2020-05-07 04:00:00 18.9 0 Calma 13 Norte 0 -- -- 72
2020-05-07 03:00:00 19.8 0 Calma 15 Sur 0 -- -- 71
2020-05-07 02:00:00 19.8 0 Calma 13 Sur 0 -- -- 72
2020-05-07 01:00:00 20.1 8 Sur 18 Sudeste 0 -- -- 72
2020-05-07 00:00:00 20.6 9 Sur 19 Sudoeste 0 -- -- 71
2020-05-06 23:00:00 20.6 5 Sur 15 Sudoeste 0 -- -- 70
2020-05-06 22:00:00 20.5 3 Sur 17 Sudoeste 0 -- -- 70
2020-05-06 21:00:00 20.6 13 Sudoeste 20 Sudoeste 0 -- -- 70
2020-05-06 20:00:00 21.5 11 Oeste 19 Oeste 0 -- -- 63
2020-05-06 19:00:00 22.5 10 Oeste 15 Oeste 0 -- -- 62
2020-05-06 18:00:00 22 11 Sudeste 24 Sudeste 0 -- -- 62
2020-05-06 17:00:00 22.9 15 Sudeste 20 Sudoeste 0 -- -- 57
2020-05-06 16:00:00 23.7 10 Sur 19 Sudeste 0 -- -- 57
2020-05-06 15:00:00 23.8 6 Sudoeste 24 Oeste 0 -- -- 60
2020-05-06 14:00:00 22.4 16 Oeste 22 Oeste 0 -- -- 60
2020-05-06 13:00:00 22.5 13 Oeste 17 Oeste 0 -- -- 60
2020-05-06 12:00:00 21.9 8 Sudoeste 11 Sur 0 -- -- 60
2020-05-06 11:00:00 22.4 6 Sur 10 Sudeste 0 -- -- 60
2020-05-06 10:00:00 21.3 7 Sur 10 Sudoeste 0 -- -- 62
2020-05-06 09:00:00 20 0 Calma 15 Norte 0 -- -- 61
2020-05-06 08:00:00 17.8 4 Sudeste 17 Norte 0 -- -- 66
2020-05-06 07:00:00 17.5 2 Este 15 Norte 0 -- -- 65
2020-05-06 06:00:00 17.5 2 Este 14 Sur 0 -- -- 66
2020-05-06 05:00:00 18 3 Nordeste 14 Norte 0 -- -- 66
2020-05-06 04:00:00 18.4 2 Este 14 Nordeste 0 -- -- 65
2020-05-06 03:00:00 18.7 0 Calma 13 Sur 0 -- -- 66
2020-05-06 02:00:00 19.1 0 Calma 10 Sur 0 -- -- 68
2020-05-06 01:00:00 19.5 3 Nordeste 10 Oeste 0 -- -- 67
2020-05-06 00:00:00 20.3 7 Oeste 15 Oeste 0 -- -- 67
2020-05-05 23:00:00 20.4 12 Sudoeste 17 Sudoeste 0 -- -- 68
2020-05-05 22:00:00 20.5 12 Sudoeste 17 Sudoeste 0 -- -- 67
2020-05-05 21:00:00 20.6 14 Sur 20 Sur 0 -- -- 66
2020-05-05 20:00:00 21 14 Sur 20 Sur 0 -- -- 65
2020-05-05 19:00:00 21.6 14 Sur 19 Sur 0 -- -- 61
2020-05-05 18:00:00 22.3 12 Sur 23 Sudoeste 0 -- -- 60
2020-05-05 17:00:00 23.1 12 Sudoeste 18 Sudoeste 0 -- -- 56
2020-05-05 16:00:00 23.6 8 Sudoeste 15 Oeste 0 -- -- 55
2020-05-05 15:00:00 22.9 9 Sudoeste 16 Oeste 0 -- -- 55
2020-05-05 14:00:00 22.7 8 Sudoeste 13 Sudoeste 0 -- -- 59
2020-05-05 13:00:00 23.8 9 Sur 13 Sudoeste 0 -- -- 57
2020-05-05 12:00:00 23.5 8 Sudoeste 13 Sur 0 -- -- 59
2020-05-05 11:00:00 23.2 9 Sur 14 Sur 0 -- -- 64
2020-05-05 10:00:00 22.2 6 Sur 15 Nordeste 0 -- -- 62
2020-05-05 09:00:00 20 2 Sudeste 15 Nordeste 0 -- -- 57
2020-05-05 08:00:00 18.6 0 Calma 14 Sudeste 0 -- -- 61
2020-05-05 07:00:00 18.9 0 Calma 14 Norte 0 -- -- 61
2020-05-05 06:00:00 18.9 2 Nordeste 12 Norte 0 -- -- 62
2020-05-05 05:00:00 18.6 2 Este 12 Norte 0 -- -- 66
2020-05-05 04:00:00 19.2 3 Nordeste 10 Norte 0 -- -- 66
2020-05-05 03:00:00 19.6 0 Calma 9 Norte 0 -- -- 68
2020-05-05 02:00:00 20.4 4 Oeste 11 Oeste 0 -- -- 72
2020-05-05 01:00:00 20.6 9 Oeste 13 Oeste 0 -- -- 74
2020-05-05 00:00:00 20.9 6 Oeste 8 Oeste 0 -- -- 72
2020-05-04 23:00:00 20.9 4 Sur 16 Sudeste 0 -- -- 71
2020-05-04 22:00:00 21 9 Sur 24 Sudeste 0 -- -- 71
2020-05-04 21:00:00 21.1 12 Sur 27 Sudoeste 0 -- -- 70
2020-05-04 20:00:00 22.1 14 Sudeste 26 Sudeste 0 -- -- 66
2020-05-04 19:00:00 24 2 Sur 27 Oeste 0 -- -- 66
2020-05-04 18:00:00 21.9 20 Oeste 27 Oeste 0 -- -- 67
2020-05-04 17:00:00 22.8 9 Sudoeste 13 Sudoeste 0 -- -- 65
2020-05-04 16:00:00 22.9 9 Sur 16 Sur 0 -- -- 65
2020-05-04 15:00:00 22.1 11 Sur 18 Sudeste 0 -- -- 67
2020-05-04 14:00:00 22.6 12 Sur 17 Sur 0 -- -- 67
2020-05-04 13:00:00 22.6 10 Sur 16 Sur 0 -- -- 66
2020-05-04 12:00:00 24.6 5 Sudoeste 10 Sudoeste 0 -- -- 58
2020-05-04 11:00:00 24.4 3 Sur 8 Sudoeste 0 -- -- 61
2020-05-04 10:00:00 23.4 2 Sur 6 Oeste 0 -- -- 65
2020-05-04 09:00:00 19.8 0 Calma 10 Sur 0 -- -- 69
2020-05-04 08:00:00 17.8 2 Sudeste 12 Sudeste 0 -- -- 73
2020-05-04 07:00:00 18.3 0 Calma 12 Sudoeste 0 -- -- 73
2020-05-04 06:00:00 18.4 3 Este 17 Este 0 -- -- 73
2020-05-04 05:00:00 19.4 0 Calma 19 Oeste 0 -- -- 74
2020-05-04 04:00:00 19.1 0 Calma 11 Sudoeste 0 -- -- 73
2020-05-04 03:00:00 19.4 0 Calma 10 Sudeste 0 -- -- 71
2020-05-04 02:00:00 19.4 3 Este 9 Norte 0 -- -- 70
2020-05-04 01:00:00 20.1 0 Calma 11 Noroeste 0 -- -- 70
2020-05-04 00:00:00 20.1 2 Sudoeste 14 Sur 0 -- -- 72
2020-05-03 23:00:00 20 2 Sudoeste 15 Noroeste 0 -- -- 72
2020-05-03 22:00:00 20.1 11 Oeste 21 Oeste 0 -- -- 72
2020-05-03 21:00:00 20.1 14 Oeste 22 Oeste 0 -- -- 72
2020-05-03 20:00:00 20.4 15 Oeste 27 Oeste 0 -- -- 71
2020-05-03 19:00:00 20.8 17 Oeste 27 Oeste 0 -- -- 70
2020-05-03 18:00:00 21 16 Oeste 29 Oeste 0 -- -- 68
2020-05-03 17:00:00 20.9 16 Oeste 26 Sudoeste 0 -- -- 67
2020-05-03 16:00:00 21.2 17 Oeste 29 Sudoeste 0 -- -- 66
2020-05-03 15:00:00 21.6 18 Oeste 28 Sudoeste 0 -- -- 66
2020-05-03 14:00:00 22.5 14 Oeste 22 Oeste 0 -- -- 64
2020-05-03 13:00:00 23.1 6 Oeste 15 Sur 0 -- -- 61
2020-05-03 12:00:00 21.8 11 Sur 15 Sur 0 -- -- 65
2020-05-03 11:00:00 23.9 2 Sudoeste 12 Sudoeste 0 -- -- 67
2020-05-03 10:00:00 19.8 6 Sur 22 Sudeste 0 -- -- 73
2020-05-03 09:00:00 19.4 3 Sudeste 26 Este 0 -- -- 78
2020-05-03 08:00:00 19.2 8 Sur 32 Este 0 -- -- 79
2020-05-03 07:00:00 19.1 9 Sur 15 Sur 0 -- -- 80
2020-05-03 06:00:00 18.9 8 Sur 31 Sudeste 0 -- -- 80
2020-05-03 05:00:00 19.2 10 Sur 23 Sudoeste 0 -- -- 75
2020-05-03 04:00:00 18.6 0 Calma 13 Sur 0 -- -- 64
2020-05-03 03:00:00 18.8 3 Nordeste 11 Oeste 0 -- -- 78
2020-05-03 02:00:00 19.6 9 Oeste 12 Oeste 0 -- -- 80
2020-05-03 01:00:00 19.7 10 Oeste 23 Oeste 0 -- -- 81
2020-05-03 00:00:00 20 12 Oeste 20 Oeste 0 -- -- 81
2020-05-02 23:00:00 19.7 12 Oeste 19 Oeste 0 -- -- 80
2020-05-02 22:00:00 19.7 14 Oeste 25 Oeste 0 -- -- 79
2020-05-02 21:00:00 19.8 21 Noroeste 27 Oeste 0 -- -- 77
2020-05-02 20:00:00 20.2 15 Oeste 25 Oeste 0 -- -- 73
2020-05-02 19:00:00 20.4 18 Oeste 25 Oeste 0 -- -- 72
2020-05-02 18:00:00 21.3 15 Oeste 23 Oeste 0 -- -- 68
2020-05-02 17:00:00 22.6 15 Oeste 19 Oeste 0 -- -- 64
2020-05-02 16:00:00 23.3 5 Sur 14 Sur 0 -- -- 63
2020-05-02 15:00:00 22.5 8 Sur 17 Sudeste 0 -- -- 66
2020-05-02 14:00:00 21.2 12 Sudeste 21 Sudeste 0 -- -- 68
2020-05-02 13:00:00 22.1 17 Sudeste 24 Sudoeste 0 -- -- 65
2020-05-02 12:00:00 22.1 8 Sur 12 Sur 0 -- -- 65
2020-05-02 11:00:00 22.5 5 Sur 14 Sur 0 -- -- 66
2020-05-02 10:00:00 21.6 8 Sudeste 19 Sudeste 0 -- -- 70
2020-05-02 09:00:00 20.1 5 Sudeste 18 Oeste 0 -- -- 73
2020-05-02 08:00:00 19.3 4 Oeste 13 Oeste 0 -- -- 75
2020-05-02 07:00:00 18.7 4 Norte 14 Norte 0 -- -- 75
2020-05-02 06:00:00 19.3 2 Oeste 9 Norte 0 -- -- 75
2020-05-02 05:00:00 19.7 2 Sudeste 18 Sudeste 0 -- -- 75
2020-05-02 04:00:00 19.7 8 Sur 22 Sudeste 0 -- -- 75
2020-05-02 03:00:00 19.8 0 Calma 18 Noroeste 0 -- -- 75
2020-05-02 02:00:00 19.7 11 Oeste 18 Noroeste 0 -- -- 74
2020-05-02 01:00:00 20 5 Sudoeste 9 Sudoeste 0 -- -- 75
2020-05-02 00:00:00 -- 4 Sudeste -- -- -- -- -- --
2020-05-01 23:00:00 20.1 8 Sudeste 21 Sudeste 0 -- -- 72
2020-05-01 22:00:00 20 10 Sur 14 Sudeste 0 -- -- 72
2020-05-01 21:00:00 20.5 8 Oeste 13 Oeste 0 -- -- 70
2020-05-01 20:00:00 21.6 7 Sudoeste 13 Sur 0 -- -- 65
2020-05-01 19:00:00 22.2 10 Sur 15 Sur 0 -- -- 63
2020-05-01 18:00:00 22.2 12 Sudeste 21 Sudeste 0 -- -- 64
2020-05-01 17:00:00 23.1 10 Sudeste 13 Sudeste 0 -- -- 61
2020-05-01 16:00:00 23.7 6 Sudoeste 29 Oeste 0 -- -- 60
2020-05-01 15:00:00 21.1 19 Oeste 31 Oeste 0 -- -- 65
2020-05-01 14:00:00 22.2 15 Oeste 20 Oeste 0 -- -- 62
2020-05-01 13:00:00 22.7 10 Sur 17 Sur 0 -- -- 62
2020-05-01 12:00:00 22.4 9 Sur 19 Oeste 0 -- -- 64
2020-05-01 11:00:00 21.3 11 Oeste 20 Oeste 0 -- -- 66
2020-05-01 10:00:00 20.5 13 Oeste 20 Oeste 0 -- -- 68
2020-05-01 09:00:00 20 8 Noroeste 15 Oeste 0 -- -- 70
2020-05-01 08:00:00 19.2 6 Norte 11 Nordeste 0 -- -- 70
2020-05-01 07:00:00 19 6 Norte 14 Norte 0 -- -- 71
2020-05-01 06:00:00 18.4 9 Norte 14 Nordeste 0 -- -- 73
2020-05-01 05:00:00 18.2 8 Norte 13 Norte 0 -- -- 75
2020-05-01 04:00:00 18.6 5 Norte 9 Norte 0 -- -- 74
2020-05-01 03:00:00 19.6 4 Sudoeste 9 Sur 0 -- -- 74
2020-05-01 02:00:00 19.6 6 Sur 15 Sur 0 -- -- 75
2020-05-01 01:00:00 19.9 8 Sur 16 Este 0 -- -- 75
2020-05-01 00:00:00 20.1 12 Sudeste 26 Este 0 -- -- 73
2020-04-30 23:00:00 20.3 12 Sudeste 17 Sudeste 0 -- -- 72
2020-04-30 22:00:00 20.3 6 Sudeste 11 Este 0 -- -- 71
2020-04-30 21:00:00 20.6 10 Sur 13 Sur 0 -- -- 68
2020-04-30 20:00:00 22.1 8 Sudeste 14 Sudeste 0 -- -- 61
2020-04-30 19:00:00 23.7 14 Sudeste 18 Sudeste 0 -- -- 55
2020-04-30 18:00:00 24.4 14 Sudeste 17 Sudeste 0 -- -- 52
2020-04-30 17:00:00 24.7 10 Sudeste 14 Sudeste 0 -- -- 49
2020-04-30 16:00:00 24.4 6 Oeste 14 Sudoeste 0 -- -- 51
2020-04-30 15:00:00 23.7 9 Sudoeste 13 Sudoeste 0 -- -- 51
2020-04-30 14:00:00 24.5 5 Sur 12 Sur 0 -- -- 52
2020-04-30 13:00:00 22.5 7 Sur 11 Sur 0 -- -- 56
2020-04-30 12:00:00 22.5 6 Sudoeste 10 Sur 0 -- -- 57
2020-04-30 11:00:00 22.2 4 Sudoeste 8 Sudoeste 0 -- -- 59
2020-04-30 10:00:00 22.3 2 Sur 13 Norte 0 -- -- 60
2020-04-30 09:00:00 17.8 11 Norte 16 Norte 0 -- -- 59
2020-04-30 08:00:00 16.8 10 Norte 14 Nordeste 0 -- -- 60
2020-04-30 07:00:00 16.7 10 Norte 18 Norte 0 -- -- 61
2020-04-30 06:00:00 17.2 11 Norte 17 Norte 0 -- -- 63
2020-04-30 05:00:00 16.9 11 Norte 16 Norte 0 -- -- 63
2020-04-30 04:00:00 17.7 8 Norte 14 Norte 0 -- -- 61
2020-04-30 03:00:00 17.6 9 Norte 12 Norte 0 -- -- 61
2020-04-30 02:00:00 18.8 8 Nordeste 12 Nordeste 0 -- -- 61
2020-04-30 01:00:00 19.1 6 Nordeste 12 Este 0 -- -- 64
2020-04-30 00:00:00 19.4 3 Sur 7 Sur 0 -- -- 67
2020-04-29 23:00:00 19.5 5 Sur 18 Sudeste 0 -- -- 66
2020-04-29 22:00:00 20 13 Sudeste 26 Sudeste 0 -- -- 65
2020-04-29 21:00:00 20.1 18 Sudeste 21 Sudeste 0 -- -- 65
2020-04-29 20:00:00 21.1 9 Sudeste 12 Sudeste 0 -- -- 61
2020-04-29 19:00:00 21.5 8 Sudoeste 21 Sudoeste 0 -- -- 60
2020-04-29 18:00:00 21.2 17 Sudoeste 26 Sudoeste 0 -- -- 61
2020-04-29 17:00:00 21.5 17 Sudoeste 27 Oeste 0 -- -- 60
2020-04-29 16:00:00 22.7 14 Sur 22 Sudeste 0 -- -- 57
2020-04-29 15:00:00 21.7 15 Sudeste 19 Sur 0 -- -- 60
2020-04-29 14:00:00 22.9 7 Sudoeste 23 Sudoeste 0 -- -- 59
2020-04-29 13:00:00 21.5 16 Sudoeste 25 Sudoeste 0 -- -- 62
2020-04-29 12:00:00 21.2 13 Sudoeste 18 Sudoeste 0 -- -- 64
2020-04-29 11:00:00 22.7 6 Sur 20 Este 0 -- -- 61
2020-04-29 10:00:00 21.1 10 Sudeste 20 Sudeste 0 -- -- 64
2020-04-29 09:00:00 18.9 6 Nordeste 15 Norte 0 -- -- 62
2020-04-29 08:00:00 18 10 Norte 16 Norte 0 -- -- 64
2020-04-29 07:00:00 17.7 10 Norte 12 Nordeste 0 -- -- 65
2020-04-29 06:00:00 18.1 5 Norte 9 Nordeste 0 -- -- 69
2020-04-29 05:00:00 18.4 7 Nordeste 9 Nordeste 0 -- -- 71
2020-04-29 04:00:00 19 0 Calma 8 Sudoeste 0 -- -- 70
2020-04-29 03:00:00 19.4 4 Sudoeste 6 Sudoeste 0 -- -- 70
2020-04-29 02:00:00 19.4 0 Calma 14 Sudoeste 0 -- -- 69
2020-04-29 01:00:00 20 11 Sudoeste 19 Sudoeste 0 -- -- 68
2020-04-29 00:00:00 20.2 6 Sur 11 Sudoeste 0 -- -- 68